Pan Pride — 3FXC5 — position and weather

sailwx.info

Track history (hours):
 
Tides and Currents Weather Stations Pressure Air Temp Water Temp Dewpoint Dewpoint Depression Visibility Wind Speed Wind Dir Waves Ship Positions

Pan Pride

Last reported at 2018-Mar-30 13:29 UTC. Time now 2018-Apr-20 05:03 UTC.
Position S 28°53' E 032°09'.
Warning: this ship's position is 20 days out of date.

Length 190 m; draft 6.3 m.

Type: Cargo ship. MMSI: 371572000.

Date/timePositionNaut miles runAvg speedWind from/ knotsBaromVisibWave heightAir tempDewpointWater temp
2018-Mar-30 13:29S 28°53' E 032°09'0 0.1
2018-Mar-30 12:59S 28°53' E 032°09'0 0.0
2018-Mar-30 12:17S 28°53' E 032°09'0 0.0
2018-Mar-30 11:59S 28°53' E 032°09'0 0.0
2018-Mar-30 11:29S 28°53' E 032°09'0 0.0
2018-Mar-30 10:59S 28°53' E 032°09'0 0.1
2018-Mar-30 09:59S 28°53' E 032°09'0 0.1
2018-Mar-30 08:47S 28°53' E 032°09'0 0.0
2018-Mar-29 15:11S 28°53' E 032°09'0 0.0
2018-Mar-29 13:47S 28°53' E 032°09'0 0.0
2018-Mar-29 11:17S 28°53' E 032°09'0 0.2
2018-Mar-29 10:59S 28°53' E 032°09'1 2.9
2018-Mar-29 10:30S 28°52' E 032°10'5 9.8
2018-Mar-29 10:00S 28°50' E 032°15'714.7
2018-Mar-29 09:30S 28°48' E 032°23'814.5
2018-Mar-29 08:59S 28°47' E 032°32'714.1
2018-Mar-29 08:30S 28°46' E 032°39'814.0
2018-Mar-29 07:58S 28°44' E 032°48'2914.0
2018-Mar-29 05:52S 28°39' E 033°21'514.5
2018-Mar-29 05:30S 28°38' E 033°27'814.5
2018-Mar-29 04:59S 28°36' E 033°35'714.5
2018-Mar-29 04:29S 28°35' E 033°43'1014.5
2018-Mar-29 03:47S 28°33' E 033°54'414.4
2018-Mar-29 03:30S 28°33' E 033°59'814.5
2018-Mar-29 02:58S 28°31' E 034°08'  
Track history (hours):
 
Tides and Currents Weather Stations Pressure Air Temp Water Temp Dewpoint Dewpoint Depression Visibility Wind Speed Wind Dir Waves Ship Positions

Pan Pride

Last reported at 2018-Mar-30 13:29 UTC. Time now 2018-Apr-20 05:03 UTC.
Position S 28°53' E 032°09'.
Warning: this ship's position is 20 days out of date.

Length 190 m; draft 6.3 m.

Type: Cargo ship. MMSI: 371572000.

Date/timePositionNaut miles runAvg speedWind from/ knotsBaromVisibWave heightAir tempDewpointWater temp
2018-Mar-30 13:29S 28°53' E 032°09'0 0.1
2018-Mar-30 12:59S 28°53' E 032°09'0 0.0
2018-Mar-30 12:17S 28°53' E 032°09'0 0.0
2018-Mar-30 11:59S 28°53' E 032°09'0 0.0
2018-Mar-30 11:29S 28°53' E 032°09'0 0.0
2018-Mar-30 10:59S 28°53' E 032°09'0 0.1
2018-Mar-30 09:59S 28°53' E 032°09'0 0.1
2018-Mar-30 08:47S 28°53' E 032°09'0 0.0
2018-Mar-29 15:11S 28°53' E 032°09'0 0.0
2018-Mar-29 13:47S 28°53' E 032°09'0 0.0
2018-Mar-29 11:17S 28°53' E 032°09'0 0.2
2018-Mar-29 10:59S 28°53' E 032°09'1 2.9
2018-Mar-29 10:30S 28°52' E 032°10'5 9.8
2018-Mar-29 10:00S 28°50' E 032°15'714.7
2018-Mar-29 09:30S 28°48' E 032°23'814.5
2018-Mar-29 08:59S 28°47' E 032°32'714.1
2018-Mar-29 08:30S 28°46' E 032°39'814.0
2018-Mar-29 07:58S 28°44' E 032°48'2914.0
2018-Mar-29 05:52S 28°39' E 033°21'514.5
2018-Mar-29 05:30S 28°38' E 033°27'814.5
2018-Mar-29 04:59S 28°36' E 033°35'714.5
2018-Mar-29 04:29S 28°35' E 033°43'1014.5
2018-Mar-29 03:47S 28°33' E 033°54'414.4
2018-Mar-29 03:30S 28°33' E 033°59'814.5
2018-Mar-29 02:58S 28°31' E 034°08'  

Dump ship's entire track history